Time;durP1;ratioP1;P1;durP2;ratioP2;P2;SDS_P1;SDS_P2;PMS_P1;PMS_P2;Temp;Humidity;BMP_temperature;BMP_pressure;BME280_temperature;BME280_humidity;BME280_pressure;Samples;Min_cycle;Max_cycle;Signal;HPM_P1;HPM_P2
2022/08/10 00:01:53;;;;;;;2.20;1.55;;;;;;;19.97;83.91;102549.22;5207995;28;20117;-71
2022/08/10 00:04:24;;;;;;;4.50;1.70;;;;;;;19.86;85.09;102555.59;5212672;28;20404;-71
2022/08/10 00:06:55;;;;;;;4.03;1.93;;;;;;;19.78;86.28;102556.34;5211859;28;20034;-71
2022/08/10 00:09:27;;;;;;;2.53;1.57;;;;;;;19.81;84.81;102555.19;5205609;28;20030;-71
2022/08/10 00:11:58;;;;;;;3.30;1.60;;;;;;;19.73;84.41;102547.94;5210554;28;20497;-71
2022/08/10 00:14:29;;;;;;;3.78;1.80;;;;;;;19.68;86.54;102556.38;5211260;28;20571;-71
2022/08/10 00:17:01;;;;;;;4.75;1.45;;;;;;;19.61;87.07;102549.94;5208791;28;20481;-71
2022/08/10 00:19:32;;;;;;;3.13;1.77;;;;;;;19.72;86.16;102546.28;5210993;28;20072;-71
2022/08/10 00:22:03;;;;;;;2.20;1.77;;;;;;;19.68;86.60;102551.06;5211010;28;20029;-71
2022/08/10 00:24:34;;;;;;;2.23;1.67;;;;;;;19.62;86.97;102549.00;5212338;28;20014;-71
2022/08/10 00:27:06;;;;;;;5.13;1.90;;;;;;;19.61;86.43;102544.63;5209541;28;20049;-71
2022/08/10 00:29:37;;;;;;;2.50;1.70;;;;;;;19.62;87.00;102546.34;5211858;28;20020;-71
2022/08/10 00:32:08;;;;;;;3.83;1.25;;;;;;;19.48;87.29;102538.84;5209215;28;20375;-71
2022/08/10 00:34:40;;;;;;;2.60;1.90;;;;;;;19.54;87.22;102535.56;5212611;28;20065;-71
2022/08/10 00:37:13;;;;;;;3.63;1.80;;;;;;;19.56;87.22;102533.63;5208719;28;20045;-71
2022/08/10 00:39:45;;;;;;;2.83;1.70;;;;;;;19.48;87.53;102533.53;5210277;28;20041;-71
2022/08/10 00:42:16;;;;;;;3.20;2.08;;;;;;;19.52;86.96;102534.06;5209224;28;20374;-71
2022/08/10 00:44:49;;;;;;;2.13;1.50;;;;;;;19.51;86.90;102527.03;5207315;28;20033;-71
2022/08/10 00:47:20;;;;;;;5.05;1.80;;;;;;;19.43;87.27;102530.44;5212044;28;20036;-71
2022/08/10 00:49:51;;;;;;;3.90;1.70;;;;;;;19.54;86.64;102532.91;5209120;28;20045;-71
2022/08/10 00:52:25;;;;;;;2.10;1.70;;;;;;;19.49;87.20;102524.56;5208223;28;20456;-71
2022/08/10 00:54:57;;;;;;;4.40;1.95;;;;;;;19.45;87.28;102528.50;5206751;28;20514;-71
2022/08/10 00:57:29;;;;;;;3.10;1.92;;;;;;;19.36;87.72;102516.09;5210879;28;20413;-71
2022/08/10 01:00:01;;;;;;;2.37;1.27;;;;;;;19.37;88.22;102523.91;5207638;28;20026;-71
2022/08/10 01:02:32;;;;;;;8.20;2.20;;;;;;;19.33;87.95;102519.03;5206933;28;20038;-71
2022/08/10 01:05:09;;;;;;;3.08;1.70;;;;;;;19.36;88.06;102524.06;5209486;28;20113;-71
2022/08/10 01:07:55;;;;;;;3.78;1.45;;;;;;;19.49;88.07;102524.56;5203601;28;20053;-71
2022/08/10 01:10:57;;;;;;;2.50;1.67;;;;;;;19.53;86.77;102525.94;5209596;28;20034;-71
2022/08/10 01:13:52;;;;;;;3.15;2.05;;;;;;;19.44;86.46;102519.69;5207574;28;20038;-71
2022/08/10 01:16:33;;;;;;;3.17;1.83;;;;;;;19.35;88.82;102519.72;5207509;28;20397;-71
2022/08/10 01:19:07;;;;;;;2.33;1.95;;;;;;;19.27;89.27;102520.44;5209505;28;20026;-71
2022/08/10 01:21:58;;;;;;;3.13;1.60;;;;;;;19.22;89.15;102517.41;5209766;28;20062;-71
2022/08/10 01:24:50;;;;;;;4.30;1.92;;;;;;;19.33;88.49;102511.06;5215712;28;20052;-71
2022/08/10 01:27:39;;;;;;;4.68;2.00;;;;;;;19.31;89.31;102516.50;5209211;28;20028;-71
2022/08/10 01:30:13;;;;;;;3.70;1.70;;;;;;;19.08;90.88;102510.72;5209233;28;20516;-71
2022/08/10 01:32:56;;;;;;;3.22;1.75;;;;;;;19.16;89.99;102507.34;5206362;28;20022;-71
2022/08/10 01:35:40;;;;;;;2.22;1.63;;;;;;;19.16;90.14;102507.34;5204499;28;20102;-71
2022/08/10 01:38:27;;;;;;;3.17;1.92;;;;;;;19.13;90.16;102511.16;5211497;28;20053;-71
2022/08/10 01:41:07;;;;;;;4.00;2.60;;;;;;;19.06;92.00;102520.69;5205621;28;20117;-71
2022/08/10 01:43:45;;;;;;;3.28;2.20;;;;;;;18.95;93.67;102513.72;5208940;28;20104;-71
2022/08/10 01:46:21;;;;;;;3.75;1.88;;;;;;;18.87;93.64;102518.94;5207535;28;20117;-71
2022/08/10 01:48:55;;;;;;;5.28;2.50;;;;;;;18.85;93.93;102520.03;5204883;28;20108;-71
2022/08/10 01:51:34;;;;;;;2.85;2.00;;;;;;;18.86;93.91;102505.78;5208220;28;20049;-70
2022/08/10 01:54:09;;;;;;;2.88;2.25;;;;;;;18.83;93.40;102506.91;5206578;28;20057;-71
2022/08/10 01:56:47;;;;;;;4.07;2.33;;;;;;;18.81;93.95;102513.34;5209348;28;20030;-71
2022/08/10 01:59:37;;;;;;;3.72;2.30;;;;;;;18.99;91.34;102516.09;5206554;28;20492;-71
2022/08/10 02:02:12;;;;;;;3.65;2.03;;;;;;;18.70;95.00;102509.00;5204087;28;20112;-70
2022/08/10 02:04:47;;;;;;;3.85;2.25;;;;;;;18.68;95.05;102519.78;5205021;28;20056;-71
2022/08/10 02:07:23;;;;;;;3.50;2.38;;;;;;;18.64;94.17;102514.91;5209207;28;20027;-71
2022/08/10 02:09:58;;;;;;;2.63;2.38;;;;;;;18.57;96.13;102511.97;5208293;28;20065;-71
2022/08/10 02:12:32;;;;;;;4.07;2.42;;;;;;;18.61;95.96;102516.00;5206141;28;20089;-71
2022/08/10 02:15:09;;;;;;;3.30;2.22;;;;;;;18.52;96.84;102518.66;5204573;28;20046;-71
2022/08/10 02:17:47;;;;;;;2.40;2.03;;;;;;;18.59;96.73;102517.13;5204016;28;20034;-71
2022/08/10 02:20:23;;;;;;;5.07;2.22;;;;;;;18.54;95.99;102509.59;5209074;28;20080;-71
2022/08/10 02:22:59;;;;;;;5.07;2.70;;;;;;;18.51;97.48;102509.88;5207504;28;20511;-71
2022/08/10 02:25:32;;;;;;;7.28;2.58;;;;;;;18.43;97.66;102502.59;5209386;28;20482;-71
2022/08/10 02:28:06;;;;;;;4.38;2.28;;;;;;;18.50;97.05;102499.41;5204776;28;20021;-71
2022/08/10 02:30:38;;;;;;;3.03;2.22;;;;;;;18.37;97.88;102505.84;5204581;28;20030;-71
2022/08/10 02:33:10;;;;;;;2.97;2.35;;;;;;;18.34;98.14;102505.28;5209360;28;20552;-73
2022/08/10 02:35:44;;;;;;;3.00;2.28;;;;;;;18.29;98.59;102502.19;5207253;28;20087;-71
2022/08/10 02:38:20;;;;;;;6.60;3.00;;;;;;;18.38;98.74;102512.81;5206357;28;20504;-71
2022/08/10 02:40:56;;;;;;;3.15;2.58;;;;;;;18.39;96.91;102506.53;5208576;28;20022;-71
2022/08/10 02:43:33;;;;;;;4.43;2.97;;;;;;;18.36;98.18;102504.16;5206482;28;20022;-70
2022/08/10 02:46:15;;;;;;;2.90;2.50;;;;;;;18.42;97.52;102511.56;5211102;28;20029;-71
2022/08/10 02:48:54;;;;;;;7.47;3.05;;;;;;;18.31;97.84;102505.56;5206891;28;20029;-70
2022/08/10 02:51:50;;;;;;;4.55;2.40;;;;;;;18.34;98.97;102503.47;5207383;28;20031;-71
2022/08/10 02:54:27;;;;;;;4.05;2.65;;;;;;;18.20;100.00;102499.41;5204783;28;20049;-71
2022/08/10 02:57:08;;;;;;;3.72;2.67;;;;;;;18.20;100.00;102493.28;5207824;28;20493;-71
2022/08/10 02:59:50;;;;;;;3.67;2.63;;;;;;;18.22;99.34;102493.94;5209852;28;20030;-71
2022/08/10 03:02:41;;;;;;;4.32;2.90;;;;;;;18.28;98.89;102490.75;5207493;28;20033;-71
2022/08/10 03:05:13;;;;;;;4.70;2.85;;;;;;;18.02;100.00;102490.47;5208679;28;20030;-70
2022/08/10 03:08:00;;;;;;;3.47;2.58;;;;;;;18.23;100.00;102490.34;5209284;28;20018;-70
2022/08/10 03:10:38;;;;;;;3.35;2.88;;;;;;;17.97;100.00;102480.28;5209554;28;20033;-71
2022/08/10 03:13:11;;;;;;;6.97;3.78;;;;;;;17.99;100.00;102485.44;5206017;28;20026;-70
2022/08/10 03:15:44;;;;;;;5.15;3.05;;;;;;;17.86;100.00;102479.56;5210130;28;20087;-71
2022/08/10 03:18:18;;;;;;;5.25;3.13;;;;;;;17.90;100.00;102480.97;5208946;28;20061;-71
2022/08/10 03:20:51;;;;;;;3.38;2.88;;;;;;;17.83;100.00;102477.19;5211272;28;20113;-71
2022/08/10 03:23:25;;;;;;;4.57;3.22;;;;;;;17.77;100.00;102472.44;5209756;28;20064;-70
2022/08/10 03:25:58;;;;;;;3.75;3.17;;;;;;;17.70;100.00;102474.78;5212598;28;20019;-71
2022/08/10 03:28:31;;;;;;;4.10;3.67;;;;;;;17.83;100.00;102485.16;5209801;28;20036;-70
2022/08/10 03:31:02;;;;;;;5.03;3.38;;;;;;;17.69;100.00;102473.94;5210507;28;20037;-71
2022/08/10 03:33:37;;;;;;;6.15;3.33;;;;;;;17.75;100.00;102477.88;5207711;28;20042;-71
2022/08/10 03:36:09;;;;;;;3.53;3.20;;;;;;;17.66;100.00;102476.03;5212586;28;20026;-71
2022/08/10 03:38:42;;;;;;;4.65;3.40;;;;;;;17.83;100.00;102475.38;5212675;28;20457;-71
2022/08/10 03:41:15;;;;;;;;;;;;;;;18.34;97.61;102476.09;5212787;28;20566;-71
2022/08/10 03:43:48;;;;;;;3.70;3.40;;;;;;;17.63;100.00;102474.47;5208606;28;19914;-71
2022/08/10 03:46:24;;;;;;;3.95;3.55;;;;;;;17.71;100.00;102489.69;5211001;28;20034;-71
2022/08/10 03:49:00;;;;;;;4.63;3.33;;;;;;;17.62;100.00;102480.75;5210182;28;20023;-71
2022/08/10 03:51:33;;;;;;;4.35;3.60;;;;;;;17.57;100.00;102477.66;5213762;28;20053;-71
2022/08/10 03:54:05;;;;;;;4.75;3.38;;;;;;;17.54;100.00;102480.63;5206223;28;20064;-71
2022/08/10 03:56:38;;;;;;;4.60;3.27;;;;;;;17.58;100.00;102489.09;5207921;28;20555;-71
2022/08/10 03:59:12;;;;;;;5.22;3.55;;;;;;;17.49;100.00;102488.94;5213334;28;20032;-71
2022/08/10 04:01:44;;;;;;;5.00;3.78;;;;;;;17.45;100.00;102494.66;5206615;28;20465;-71
2022/08/10 04:04:16;;;;;;;4.15;3.55;;;;;;;17.50;100.00;102489.78;5208988;28;20101;-71
2022/08/10 04:06:47;;;;;;;7.80;3.88;;;;;;;17.44;100.00;102485.88;5212210;28;20028;-70
2022/08/10 04:09:19;;;;;;;5.28;3.63;;;;;;;17.44;100.00;102480.56;5212814;28;20026;-71
2022/08/10 04:11:50;;;;;;;5.50;3.42;;;;;;;17.43;100.00;102488.66;5207743;28;20037;-71
2022/08/10 04:14:21;;;;;;;4.35;3.75;;;;;;;17.51;100.00;102489.66;5211238;28;20034;-71
2022/08/10 04:16:53;;;;;;;7.15;3.85;;;;;;;17.43;100.00;102491.31;5210661;28;20045;-71
2022/08/10 04:19:26;;;;;;;6.97;4.00;;;;;;;17.38;100.00;102490.88;5206910;28;20034;-71
2022/08/10 04:22:12;;;;;;;4.97;4.10;;;;;;;17.52;100.00;102496.63;5210980;28;20057;-71
2022/08/10 04:24:47;;;;;;;4.50;3.25;;;;;;;17.47;100.00;102492.72;5208850;28;20025;-71
2022/08/10 04:27:19;;;;;;;4.28;3.72;;;;;;;17.36;100.00;102493.66;5203602;28;20281;-70
2022/08/10 04:29:50;;;;;;;8.02;3.97;;;;;;;17.33;100.00;102493.09;5205067;28;20029;-70
2022/08/10 04:32:22;;;;;;;6.15;3.75;;;;;;;17.31;100.00;102497.66;5197063;28;20030;-70
2022/08/10 04:34:56;;;;;;;4.80;3.65;;;;;;;17.39;100.00;102493.41;5205787;28;20724;-70
2022/08/10 04:37:29;;;;;;;6.53;4.03;;;;;;;17.33;100.00;102495.75;5208921;28;20710;-70
2022/08/10 04:40:01;;;;;;;4.50;3.58;;;;;;;17.35;100.00;102497.28;5205683;28;20026;-70
2022/08/10 04:42:32;;;;;;;6.30;3.67;;;;;;;17.39;100.00;102492.56;5203003;28;20022;-71
2022/08/10 04:45:10;;;;;;;6.28;4.00;;;;;;;17.42;100.00;102502.88;5205301;28;20018;-70
2022/08/10 04:47:41;;;;;;;3.67;3.30;;;;;;;17.34;100.00;102500.88;5204976;28;20073;-70
2022/08/10 04:50:13;;;;;;;5.05;3.70;;;;;;;17.25;100.00;102493.75;5205208;28;20029;-70
2022/08/10 04:52:45;;;;;;;4.22;3.72;;;;;;;17.29;100.00;102487.22;5206801;28;20042;-70
2022/08/10 04:55:17;;;;;;;5.50;4.00;;;;;;;17.30;100.00;102490.69;5201914;28;20537;-70
2022/08/10 04:57:48;;;;;;;5.22;4.03;;;;;;;17.32;100.00;102479.00;5206624;28;20117;-70
2022/08/10 05:00:19;;;;;;;8.38;3.90;;;;;;;17.32;100.00;102486.13;5204529;28;20075;-70
2022/08/10 05:02:51;;;;;;;5.57;4.30;;;;;;;17.37;100.00;102486.53;5204953;28;20030;-70
2022/08/10 05:05:22;;;;;;;4.22;3.83;;;;;;;17.31;100.00;102479.13;5205566;28;20084;-70
2022/08/10 05:07:53;;;;;;;4.65;4.15;;;;;;;17.34;100.00;102485.00;5207579;28;20116;-70
2022/08/10 05:10:25;;;;;;;4.95;4.38;;;;;;;17.31;100.00;102482.59;5204217;28;20048;-70
2022/08/10 05:12:56;;;;;;;5.40;4.90;;;;;;;17.35;100.00;102484.03;5203681;28;20037;-70
2022/08/10 05:15:27;;;;;;;7.75;4.90;;;;;;;17.40;100.00;102487.13;5206275;28;20421;-70
2022/08/10 05:17:59;;;;;;;5.90;4.03;;;;;;;17.48;100.00;102489.94;5203553;28;20385;-70
2022/08/10 05:20:30;;;;;;;4.45;3.88;;;;;;;17.48;100.00;102484.63;5208578;28;20030;-72
2022/08/10 05:23:01;;;;;;;5.50;3.85;;;;;;;17.52;100.00;102479.91;5203904;28;20124;-73
2022/08/10 05:25:33;;;;;;;6.30;4.15;;;;;;;17.53;100.00;102484.22;5204530;28;20022;-71
2022/08/10 05:28:04;;;;;;;7.60;4.65;;;;;;;17.55;100.00;102484.94;5207187;28;20108;-72
2022/08/10 05:30:36;;;;;;;4.85;4.35;;;;;;;17.61;100.00;102484.38;5206503;28;20037;-71
2022/08/10 05:33:07;;;;;;;5.45;4.50;;;;;;;17.63;100.00;102479.78;5204683;28;20034;-71
2022/08/10 05:35:38;;;;;;;6.07;4.20;;;;;;;17.70;100.00;102502.13;5208514;28;20037;-71
2022/08/10 05:38:11;;;;;;;6.85;4.32;;;;;;;17.68;100.00;102504.06;5205420;28;20017;-71
2022/08/10 05:40:43;;;;;;;7.63;4.57;;;;;;;17.69;100.00;102500.47;5203103;28;20102;-71
2022/08/10 05:43:17;;;;;;;6.43;4.85;;;;;;;17.69;100.00;102500.47;5207233;28;20065;-71
2022/08/10 05:45:51;;;;;;;5.70;4.63;;;;;;;17.73;100.00;102499.22;5205735;28;20022;-71
2022/08/10 05:48:23;;;;;;;11.52;5.22;;;;;;;17.73;100.00;102501.84;5207132;28;20026;-71
2022/08/10 05:50:54;;;;;;;7.90;4.72;;;;;;;17.82;100.00;102500.22;5199921;28;20159;-71
2022/08/10 05:53:25;;;;;;;8.13;5.30;;;;;;;17.88;100.00;102493.50;5198970;28;20037;-71
2022/08/10 05:55:57;;;;;;;6.88;5.32;;;;;;;17.94;100.00;102498.28;5198758;28;20032;-70
2022/08/10 05:58:28;;;;;;;7.45;5.15;;;;;;;17.95;100.00;102499.94;5202900;28;20105;-71
2022/08/10 06:01:02;;;;;;;5.95;5.20;;;;;;;17.99;100.00;102502.22;5206313;28;20109;-69
2022/08/10 06:03:38;;;;;;;6.15;5.22;;;;;;;18.10;100.00;102503.03;5199657;28;20029;-70
2022/08/10 06:06:11;;;;;;;8.13;5.55;;;;;;;18.11;100.00;102504.72;5198404;28;20552;-70
2022/08/10 06:08:45;;;;;;;6.07;5.20;;;;;;;18.18;100.00;102497.88;5200625;28;20329;-70
2022/08/10 06:11:18;;;;;;;5.72;5.18;;;;;;;18.22;100.00;102500.13;5200233;28;20022;-70
2022/08/10 06:16:44;;;;;;;8.30;5.75;;;;;;;18.40;100.00;102500.22;5203286;28;20082;-70
2022/08/10 06:19:16;;;;;;;9.18;5.80;;;;;;;18.49;100.00;102495.91;5204325;28;20037;-70
2022/08/10 06:21:47;;;;;;;9.13;6.40;;;;;;;18.54;100.00;102504.28;5202137;28;20033;-70
2022/08/10 06:24:22;;;;;;;6.88;6.13;;;;;;;18.67;100.00;102507.44;5199457;28;20029;-70
2022/08/10 06:26:53;;;;;;;7.03;6.30;;;;;;;18.70;100.00;102499.25;5200700;28;20300;-70
2022/08/10 06:29:28;;;;;;;6.90;6.30;;;;;;;18.77;100.00;102504.00;5203446;28;20428;-70
2022/08/10 06:32:01;;;;;;;7.07;6.28;;;;;;;18.86;100.00;102509.25;5198039;28;20417;-70
2022/08/10 06:34:37;;;;;;;7.63;6.18;;;;;;;19.03;100.00;102505.03;5201100;28;20473;-71
2022/08/10 06:37:10;;;;;;;9.18;5.70;;;;;;;19.10;100.00;102499.97;5203069;28;20030;-70
2022/08/10 06:39:43;;;;;;;10.98;6.18;;;;;;;19.14;100.00;102501.34;5205601;28;20017;-70
2022/08/10 06:42:36;;;;;;;9.18;6.05;;;;;;;19.60;100.00;102502.25;5204430;28;20044;-71
2022/08/10 06:45:11;;;;;;;6.93;5.88;;;;;;;19.54;100.00;102500.19;5203534;28;20038;-70
2022/08/10 06:47:49;;;;;;;6.97;6.10;;;;;;;19.56;100.00;102500.88;5203483;28;20512;-70
2022/08/10 06:50:32;;;;;;;6.22;5.70;;;;;;;19.75;100.00;102497.28;5205332;28;20029;-71
2022/08/10 06:53:11;;;;;;;7.90;5.68;;;;;;;19.84;99.72;102488.41;5202369;28;20072;-70
2022/08/10 06:55:47;;;;;;;6.88;5.40;;;;;;;19.99;98.51;102499.34;5208595;28;20038;-70
2022/08/10 06:58:23;;;;;;;8.80;5.80;;;;;;;20.05;98.35;102488.94;5203826;28;20087;-71
2022/08/10 07:00:55;;;;;;;7.18;5.65;;;;;;;20.23;96.81;102501.38;5205479;28;20038;-70
2022/08/10 07:03:32;;;;;;;6.10;5.45;;;;;;;20.42;95.18;102507.41;5207150;28;20033;-70
2022/08/10 07:06:06;;;;;;;6.38;5.30;;;;;;;20.42;93.64;102507.41;5208143;28;20022;-71
2022/08/10 07:08:40;;;;;;;7.47;5.75;;;;;;;20.51;92.76;102502.16;5207006;28;20106;-71
2022/08/10 07:11:13;;;;;;;6.30;5.43;;;;;;;20.62;90.67;102507.25;5205478;28;20026;-70
2022/08/10 07:13:46;;;;;;;8.52;5.97;;;;;;;20.73;88.06;102509.66;5201010;28;20476;-71
2022/08/10 07:16:18;;;;;;;7.55;4.53;;;;;;;20.83;86.66;102515.69;5206325;28;20049;-71
2022/08/10 07:18:49;;;;;;;6.13;4.47;;;;;;;20.95;85.70;102516.28;5210797;28;20112;-70
2022/08/10 07:21:23;;;;;;;7.13;4.90;;;;;;;21.18;86.48;102515.75;5207473;28;20388;-71
2022/08/10 07:23:56;;;;;;;5.88;5.28;;;;;;;21.23;82.48;102514.25;5209693;28;20060;-71
2022/08/10 07:26:29;;;;;;;6.80;5.25;;;;;;;21.37;81.48;102512.84;5206641;28;20373;-71
2022/08/10 07:29:01;;;;;;;8.40;5.03;;;;;;;21.46;81.60;102516.38;5209866;28;20053;-71
2022/08/10 07:31:35;;;;;;;8.27;4.93;;;;;;;21.57;79.89;102516.91;5206807;28;20069;-71
2022/08/10 07:34:08;;;;;;;8.88;4.95;;;;;;;21.78;79.34;102516.47;5202594;28;20337;-71
2022/08/10 07:36:41;;;;;;;6.20;5.10;;;;;;;21.95;76.20;102506.66;5206046;28;20541;-71
2022/08/10 07:39:14;;;;;;;6.90;5.07;;;;;;;22.04;76.78;102519.00;5206796;28;20472;-71
2022/08/10 07:41:50;;;;;;;8.40;5.40;;;;;;;22.25;75.25;102515.06;5205051;28;20018;-70
2022/08/10 07:44:26;;;;;;;8.30;5.43;;;;;;;22.38;74.80;102518.06;5201474;28;20100;-71
2022/08/10 07:47:02;;;;;;;7.28;5.15;;;;;;;22.41;72.51;102516.91;5205266;28;20033;-71
2022/08/10 07:49:37;;;;;;;7.13;5.25;;;;;;;22.51;71.62;102514.91;5204510;28;20494;-72
2022/08/10 07:52:09;;;;;;;5.47;4.50;;;;;;;22.73;70.48;102516.00;5203422;28;20501;-71
2022/08/10 07:54:43;;;;;;;;;;;;;;;23.31;67.84;102510.38;5205185;28;20124;-72
2022/08/10 07:57:28;;;;;;;6.82;5.43;;;;;;;23.17;69.96;102512.94;5206514;28;19921;-72
2022/08/10 08:00:06;;;;;;;5.72;4.93;;;;;;;23.16;67.26;102514.78;5205531;28;20040;-71
2022/08/10 08:02:46;;;;;;;5.38;4.65;;;;;;;23.35;64.57;102508.19;5206950;28;20030;-71
2022/08/10 08:05:24;;;;;;;6.28;4.68;;;;;;;23.55;65.59;102513.94;5205496;28;20424;-71
2022/08/10 08:07:57;;;;;;;10.43;4.22;;;;;;;23.61;63.04;102520.44;5201867;28;20489;-71
2022/08/10 08:10:30;;;;;;;6.47;4.28;;;;;;;23.78;65.65;102522.03;5203397;28;20505;-72
2022/08/10 08:13:02;;;;;;;7.32;5.57;;;;;;;23.95;63.83;102525.44;5203834;28;20419;-70
2022/08/10 08:15:34;;;;;;;5.38;4.43;;;;;;;23.95;60.56;102512.06;5205501;28;20097;-71
2022/08/10 08:18:07;;;;;;;6.85;4.03;;;;;;;24.10;58.99;102514.78;5204060;28;20480;-70
2022/08/10 08:20:39;;;;;;;6.15;4.07;;;;;;;24.27;60.42;102519.81;5204406;28;20026;-71
2022/08/10 08:23:12;;;;;;;6.78;4.15;;;;;;;24.35;59.03;102515.41;5203903;28;20101;-72
2022/08/10 08:25:45;;;;;;;5.43;4.88;;;;;;;24.46;58.74;102523.06;5199873;28;20026;-71
2022/08/10 08:28:16;;;;;;;;;;;;;;;25.18;58.09;102517.94;5206127;28;20022;-71
2022/08/10 08:30:48;;;;;;;8.13;5.40;;;;;;;24.89;57.21;102517.91;5203857;28;20443;-71
2022/08/10 08:33:20;;;;;;;9.90;5.40;;;;;;;25.01;57.20;102516.47;5206891;28;20378;-70
2022/08/10 08:35:52;;;;;;;6.35;5.22;;;;;;;24.98;55.93;102512.28;5206724;28;20452;-71
2022/08/10 08:38:25;;;;;;;14.90;5.53;;;;;;;25.21;56.44;102514.06;5206901;28;20030;-71
2022/08/10 08:40:59;;;;;;;;;;;;;;;25.94;56.78;102512.25;5203957;28;20053;-71
2022/08/10 08:44:02;;;;;;;7.43;4.80;;;;;;;25.71;54.34;102513.22;5197341;28;19928;-71
2022/08/10 08:47:06;;;;;;;7.50;4.07;;;;;;;25.86;54.31;102515.88;5206377;28;20140;-71
2022/08/10 08:50:00;;;;;;;5.13;3.92;;;;;;;25.94;53.34;102513.06;5202411;28;20076;-71
2022/08/10 08:52:47;;;;;;;8.90;4.97;;;;;;;25.98;52.87;102508.16;5198972;28;20025;-71
2022/08/10 08:55:43;;;;;;;8.80;5.10;;;;;;;25.91;52.11;102513.47;5200460;28;20417;-71
2022/08/10 08:58:48;;;;;;;6.32;4.78;;;;;;;26.31;53.29;102513.00;5200087;28;20030;-71
2022/08/10 09:01:46;;;;;;;6.00;5.05;;;;;;;26.23;52.44;102510.44;5208997;28;20017;-71
2022/08/10 09:04:51;;;;;;;7.82;5.38;;;;;;;26.58;50.60;102514.88;5207499;28;20428;-71
2022/08/10 09:07:46;;;;;;;6.03;4.55;;;;;;;26.57;50.02;102510.53;5206103;28;20516;-71
2022/08/10 09:10:29;;;;;;;7.95;4.47;;;;;;;26.64;49.10;102507.91;5205984;28;20453;-71
2022/08/10 09:13:13;;;;;;;6.15;4.85;;;;;;;26.89;49.42;102501.00;5207818;28;20441;-71
2022/08/10 09:16:42;;;;;;;7.35;5.30;;;;;;;27.21;48.58;102493.34;5206111;28;20411;-71
2022/08/10 09:19:26;;;;;;;6.80;4.68;;;;;;;27.14;48.23;102495.19;5202119;28;20125;-70
2022/08/10 09:22:06;;;;;;;5.00;4.50;;;;;;;27.11;47.74;102491.03;5196160;28;20649;-70
2022/08/10 09:24:46;;;;;;;7.53;4.78;;;;;;;27.31;47.64;102495.66;5199160;28;20065;-70
2022/08/10 09:27:25;;;;;;;6.95;4.45;;;;;;;27.31;46.89;102496.47;5203179;28;20052;-71
2022/08/10 09:30:01;;;;;;;7.22;4.07;;;;;;;27.30;44.19;102488.63;5204795;28;20030;-70
2022/08/10 09:32:46;;;;;;;7.13;3.70;;;;;;;27.56;44.23;102482.50;5203277;28;20030;-70
2022/08/10 09:35:44;;;;;;;5.85;3.80;;;;;;;27.72;45.07;102487.47;5202210;28;20038;-70
2022/08/10 09:38:43;;;;;;;9.13;4.18;;;;;;;27.91;45.63;102480.50;5196909;28;20029;-70
2022/08/10 09:41:30;;;;;;;7.00;3.75;;;;;;;28.16;45.31;102479.91;5200723;28;20489;-70
2022/08/10 09:44:05;;;;;;;5.93;3.70;;;;;;;28.08;43.10;102475.56;5200579;28;20485;-70
2022/08/10 09:46:39;;;;;;;11.27;4.20;;;;;;;27.99;43.37;102479.47;5192445;28;20138;-71
2022/08/10 09:49:26;;;;;;;6.95;3.17;;;;;;;28.16;43.66;102478.03;5201460;28;20030;-70
2022/08/10 09:52:06;;;;;;;5.57;3.67;;;;;;;28.35;41.98;102471.78;5196377;28;20053;-71
2022/08/10 09:55:31;;;;;;;4.18;3.38;;;;;;;28.80;41.60;102465.72;5201898;28;20021;-71
2022/08/10 09:58:22;;;;;;;6.43;4.13;;;;;;;28.77;41.92;102468.84;5213320;28;20487;-70
2022/08/10 10:01:24;;;;;;;6.70;3.30;;;;;;;28.94;41.84;102464.63;5217742;28;20287;-71
2022/08/10 10:04:08;;;;;;;7.40;3.20;;;;;;;29.11;40.19;102464.19;5200199;28;20518;-71
2022/08/10 10:06:47;;;;;;;5.10;3.53;;;;;;;29.17;40.07;102468.69;5202546;28;20031;-70
2022/08/10 10:09:41;;;;;;;5.90;3.83;;;;;;;29.07;39.96;102453.00;5204205;28;20036;-71
2022/08/10 10:12:31;;;;;;;5.80;3.50;;;;;;;29.28;40.86;102460.78;5203207;28;20488;-70
2022/08/10 10:15:24;;;;;;;8.25;3.38;;;;;;;29.29;40.42;102454.34;5201374;28;20066;-71
2022/08/10 10:18:01;;;;;;;;;;;;;;;29.91;39.42;102445.63;5207674;28;20026;-71
2022/08/10 10:20:47;;;;;;;6.85;3.10;;;;;;;29.29;38.84;102448.94;5196432;28;20343;-71
2022/08/10 10:23:31;;;;;;;6.10;2.97;;;;;;;29.58;38.20;102450.22;5204448;28;20037;-70
2022/08/10 10:26:18;;;;;;;4.50;3.20;;;;;;;29.68;38.12;102441.66;5204397;28;20034;-71
2022/08/10 10:29:13;;;;;;;3.70;2.60;;;;;;;29.98;37.50;102441.00;5227027;23;20038;-69
2022/08/10 10:32:17;;;;;;;7.15;2.88;;;;;;;30.02;34.48;102434.09;5210248;28;20109;-68
2022/08/10 10:35:00;;;;;;;6.53;2.35;;;;;;;30.12;34.81;102425.47;5209259;28;20575;-68
2022/08/10 10:37:33;;;;;;;3.38;2.20;;;;;;;30.07;34.03;102412.63;5214364;28;20120;-68
2022/08/10 10:40:07;;;;;;;5.43;3.05;;;;;;;30.05;34.26;102433.66;5209614;28;20060;-68
2022/08/10 10:43:15;;;;;;;4.20;2.30;;;;;;;30.25;34.39;102434.31;5206181;28;20029;-69
2022/08/10 10:46:05;;;;;;;6.20;2.58;;;;;;;30.29;33.96;102419.31;5199181;28;20047;-69
2022/08/10 10:49:00;;;;;;;6.93;2.40;;;;;;;30.32;33.60;102419.94;5208483;28;20041;-70
2022/08/10 10:51:47;;;;;;;5.43;2.08;;;;;;;30.54;34.20;102411.16;5210779;28;20034;-70
2022/08/10 10:54:27;;;;;;;4.57;2.50;;;;;;;30.35;32.23;102412.19;5207684;28;20025;-69
2022/08/10 10:57:11;;;;;;;5.25;2.25;;;;;;;30.60;32.09;102413.97;5209109;28;20431;-70
2022/08/10 11:00:03;;;;;;;4.00;2.20;;;;;;;30.68;31.81;102390.16;5192551;28;20030;-70
2022/08/10 11:02:53;;;;;;;7.65;2.58;;;;;;;30.85;30.63;102406.63;5209881;28;20033;-70
2022/08/10 11:05:39;;;;;;;6.22;2.30;;;;;;;30.76;30.61;102395.31;5210403;28;20025;-70
2022/08/10 11:08:23;;;;;;;6.45;2.50;;;;;;;31.07;30.58;102396.16;5212870;28;20037;-70
2022/08/10 11:11:00;;;;;;;3.25;2.35;;;;;;;30.95;30.78;102389.84;5209444;28;20038;-70
2022/08/10 11:13:45;;;;;;;3.58;2.22;;;;;;;30.98;31.01;102389.38;5209394;28;20903;-70
2022/08/10 11:16:23;;;;;;;2.70;2.10;;;;;;;30.97;30.77;102390.44;5206156;28;20108;-70
2022/08/10 11:19:14;;;;;;;5.03;2.35;;;;;;;31.16;30.50;102383.09;5209118;28;20041;-70
2022/08/10 11:22:01;;;;;;;5.95;2.58;;;;;;;31.43;29.93;102380.84;5199013;28;20033;-70
2022/08/10 11:24:42;;;;;;;5.28;2.33;;;;;;;31.37;30.55;102377.19;5209697;28;20044;-69
2022/08/10 11:27:40;;;;;;;5.03;2.45;;;;;;;31.62;29.89;102376.97;5210801;28;20042;-70
2022/08/10 11:30:18;;;;;;;3.75;2.17;;;;;;;31.32;28.57;102373.53;5210355;28;20038;-69
2022/08/10 11:33:26;;;;;;;6.05;2.47;;;;;;;31.70;30.04;102376.63;5206561;28;20449;-70
2022/08/10 11:36:04;;;;;;;5.40;2.50;;;;;;;31.44;29.58;102374.34;5205781;28;20066;-69
2022/08/10 11:38:49;;;;;;;6.28;2.08;;;;;;;31.70;29.67;102375.81;5209599;28;20021;-70
2022/08/10 11:41:38;;;;;;;5.65;2.30;;;;;;;31.61;29.50;102379.94;5209078;28;20032;-69
2022/08/10 11:44:25;;;;;;;3.47;2.20;;;;;;;31.65;29.00;102367.56;5205876;28;20104;-69
2022/08/10 11:47:17;;;;;;;5.15;2.10;;;;;;;31.83;29.30;102370.19;5210825;28;20079;-69
2022/08/10 11:49:56;;;;;;;4.70;2.40;;;;;;;31.64;27.71;102366.75;5209524;28;20022;-69
2022/08/10 11:52:37;;;;;;;4.43;2.25;;;;;;;31.78;27.26;102361.09;5205737;28;20116;-69
2022/08/10 11:55:17;;;;;;;4.20;2.00;;;;;;;31.90;27.79;102367.38;5206753;28;20033;-69
2022/08/10 11:57:53;;;;;;;3.63;2.30;;;;;;;31.90;27.99;102361.97;5204072;28;20040;-69
2022/08/10 12:00:27;;;;;;;3.67;2.13;;;;;;;31.79;27.62;102355.44;5207324;28;20018;-71
2022/08/10 12:03:02;;;;;;;3.55;2.13;;;;;;;31.83;27.79;102359.34;5203918;28;20473;-69
2022/08/10 12:05:38;;;;;;;3.35;2.10;;;;;;;32.01;28.28;102358.38;5205390;28;20754;-71
2022/08/10 12:08:10;;;;;;;4.05;1.90;;;;;;;31.98;28.29;102364.31;5207228;28;20448;-70
2022/08/10 12:10:42;;;;;;;4.35;1.90;;;;;;;32.06;27.52;102347.69;5203559;28;20053;-70
2022/08/10 12:13:27;;;;;;;7.20;2.30;;;;;;;32.29;27.41;102346.00;5202934;28;20025;-70
2022/08/10 12:16:11;;;;;;;5.18;1.98;;;;;;;32.42;26.87;102351.16;5205872;28;20521;-70
2022/08/10 12:18:45;;;;;;;3.05;2.05;;;;;;;32.48;26.63;102341.25;5205166;28;20034;-70